sensor_id;sensor_type;location;lat;lon;timestamp;pressure;altitude;pressure_sealevel;temperature;humidity
75650;BME280;64245;51.282;22.494;2023-04-29T00:02:12;99216.66;;;3.12;79.34
75650;BME280;64245;51.282;22.494;2023-04-29T00:04:38;99236.91;;;3.15;80.12
75650;BME280;64245;51.282;22.494;2023-04-29T00:07:04;99221.88;;;3.13;78.98
75650;BME280;64245;51.282;22.494;2023-04-29T00:09:30;99203.41;;;2.98;79.63
75650;BME280;64245;51.282;22.494;2023-04-29T00:11:55;99232.09;;;3.07;79.82
75650;BME280;64245;51.282;22.494;2023-04-29T00:14:21;99219.28;;;2.99;80.10
75650;BME280;64245;51.282;22.494;2023-04-29T00:16:47;99215.84;;;2.97;80.33
75650;BME280;64245;51.282;22.494;2023-04-29T00:19:13;99209.41;;;3.01;79.35
75650;BME280;64245;51.282;22.494;2023-04-29T00:21:38;99203.41;;;2.98;79.46
75650;BME280;64245;51.282;22.494;2023-04-29T00:24:04;99222.41;;;3.06;80.33
75650;BME280;64245;51.282;22.494;2023-04-29T00:26:30;99195.53;;;2.96;80.25
75650;BME280;64245;51.282;22.494;2023-04-29T00:28:56;99223.56;;;3.02;78.53
75650;BME280;64245;51.282;22.494;2023-04-29T00:31:22;99194.19;;;3.03;77.98
75650;BME280;64245;51.282;22.494;2023-04-29T00:33:48;99209.34;;;3.16;78.04
75650;BME280;64245;51.282;22.494;2023-04-29T00:36:13;99209.16;;;3.19;79.08
75650;BME280;64245;51.282;22.494;2023-04-29T00:38:39;99195.81;;;3.06;79.63
75650;BME280;64245;51.282;22.494;2023-04-29T00:41:06;99203.22;;;3.01;80.22
75650;BME280;64245;51.282;22.494;2023-04-29T00:43:32;99197.16;;;2.99;79.50
75650;BME280;64245;51.282;22.494;2023-04-29T00:45:58;99201.50;;;3.00;79.34
75650;BME280;64245;51.282;22.494;2023-04-29T00:48:24;99181.09;;;3.00;80.64
75650;BME280;64245;51.282;22.494;2023-04-29T00:50:49;99185.84;;;2.95;80.40
75650;BME280;64245;51.282;22.494;2023-04-29T00:53:15;99192.88;;;2.96;79.96
75650;BME280;64245;51.282;22.494;2023-04-29T00:55:45;99208.19;;;3.20;80.19
75650;BME280;64245;51.282;22.494;2023-04-29T00:58:12;99199.84;;;3.11;79.01
75650;BME280;64245;51.282;22.494;2023-04-29T01:00:37;99202.50;;;3.11;79.03
75650;BME280;64245;51.282;22.494;2023-04-29T01:03:04;99199.03;;;2.97;79.47
75650;BME280;64245;51.282;22.494;2023-04-29T01:05:29;99203.03;;;3.04;78.90
75650;BME280;64245;51.282;22.494;2023-04-29T01:08:21;99204.75;;;2.91;80.05
75650;BME280;64245;51.282;22.494;2023-04-29T01:11:07;99214.38;;;2.79;79.90
75650;BME280;64245;51.282;22.494;2023-04-29T01:13:42;99209.25;;;2.76;79.94
75650;BME280;64245;51.282;22.494;2023-04-29T01:16:15;99215.63;;;2.73;79.64
75650;BME280;64245;51.282;22.494;2023-04-29T01:18:51;99226.53;;;2.83;80.12
75650;BME280;64245;51.282;22.494;2023-04-29T01:21:19;99185.53;;;2.59;80.43
75650;BME280;64245;51.282;22.494;2023-04-29T01:23:45;99214.75;;;2.73;80.68
75650;BME280;64245;51.282;22.494;2023-04-29T01:26:10;99192.75;;;2.57;80.75
75650;BME280;64245;51.282;22.494;2023-04-29T01:31:24;99198.66;;;2.33;81.68
75650;BME280;64245;51.282;22.494;2023-04-29T01:36:46;99199.91;;;2.42;81.25
75650;BME280;64245;51.282;22.494;2023-04-29T01:40:04;99188.50;;;2.40;80.83
75650;BME280;64245;51.282;22.494;2023-04-29T01:42:44;99213.66;;;2.49;82.17
75650;BME280;64245;51.282;22.494;2023-04-29T01:45:14;99187.66;;;2.39;82.06
75650;BME280;64245;51.282;22.494;2023-04-29T01:47:45;99202.72;;;2.53;82.68
75650;BME280;64245;51.282;22.494;2023-04-29T01:50:11;99191.16;;;2.40;83.91
75650;BME280;64245;51.282;22.494;2023-04-29T01:52:37;99190.03;;;2.44;82.09
75650;BME280;64245;51.282;22.494;2023-04-29T01:55:03;99196.66;;;2.51;82.82
75650;BME280;64245;51.282;22.494;2023-04-29T01:57:30;99193.03;;;2.52;82.65
75650;BME280;64245;51.282;22.494;2023-04-29T01:59:56;99172.47;;;2.41;81.46
75650;BME280;64245;51.282;22.494;2023-04-29T02:02:22;99192.78;;;2.42;82.51
75650;BME280;64245;51.282;22.494;2023-04-29T02:04:48;99171.31;;;2.31;82.30
75650;BME280;64245;51.282;22.494;2023-04-29T02:07:15;99186.31;;;2.47;81.88
75650;BME280;64245;51.282;22.494;2023-04-29T02:09:41;99190.13;;;2.42;83.52
75650;BME280;64245;51.282;22.494;2023-04-29T02:12:09;99192.75;;;2.57;82.23
75650;BME280;64245;51.282;22.494;2023-04-29T02:14:34;99173.72;;;2.50;82.29
75650;BME280;64245;51.282;22.494;2023-04-29T02:17:00;99180.22;;;2.59;82.61
75650;BME280;64245;51.282;22.494;2023-04-29T02:19:26;99168.69;;;2.46;83.12
75650;BME280;64245;51.282;22.494;2023-04-29T02:21:51;99165.25;;;2.43;82.19
75650;BME280;64245;51.282;22.494;2023-04-29T02:24:17;99181.78;;;2.49;83.10
75650;BME280;64245;51.282;22.494;2023-04-29T02:26:42;99175.03;;;2.43;82.28
75650;BME280;64245;51.282;22.494;2023-04-29T02:29:08;99186.31;;;2.61;81.52
75650;BME280;64245;51.282;22.494;2023-04-29T02:31:34;99173.38;;;2.55;81.77
75650;BME280;64245;51.282;22.494;2023-04-29T02:34:00;99184.59;;;2.60;81.45
75650;BME280;64245;51.282;22.494;2023-04-29T02:36:26;99162.66;;;2.56;81.10
75650;BME280;64245;51.282;22.494;2023-04-29T02:38:52;99168.84;;;2.57;81.36
75650;BME280;64245;51.282;22.494;2023-04-29T02:41:19;99168.25;;;2.52;81.11
75650;BME280;64245;51.282;22.494;2023-04-29T02:43:45;99158.22;;;2.42;81.38
75650;BME280;64245;51.282;22.494;2023-04-29T02:46:11;99172.25;;;2.59;80.87
75650;BME280;64245;51.282;22.494;2023-04-29T02:48:40;99162.84;;;2.53;81.29
75650;BME280;64245;51.282;22.494;2023-04-29T02:51:06;99171.59;;;2.55;81.42
75650;BME280;64245;51.282;22.494;2023-04-29T02:53:32;99146.66;;;2.43;82.21
75650;BME280;64245;51.282;22.494;2023-04-29T02:55:57;99164.13;;;2.48;82.56
75650;BME280;64245;51.282;22.494;2023-04-29T02:58:23;99144.88;;;2.30;82.81
75650;BME280;64245;51.282;22.494;2023-04-29T03:00:49;99171.59;;;2.55;82.63
75650;BME280;64245;51.282;22.494;2023-04-29T03:03:15;99159.28;;;2.40;82.66
75650;BME280;64245;51.282;22.494;2023-04-29T03:05:41;99159.47;;;2.37;82.45
75650;BME280;64245;51.282;22.494;2023-04-29T03:08:07;99173.78;;;2.34;83.54
75650;BME280;64245;51.282;22.494;2023-04-29T03:10:35;99165.53;;;2.39;83.32
75650;BME280;64245;51.282;22.494;2023-04-29T03:13:00;99147.41;;;2.31;83.10
75650;BME280;64245;51.282;22.494;2023-04-29T03:15:26;99153.13;;;2.25;83.71
75650;BME280;64245;51.282;22.494;2023-04-29T03:17:52;99147.63;;;2.28;83.38
75650;BME280;64245;51.282;22.494;2023-04-29T03:20:18;99178.41;;;2.59;82.41
75650;BME280;64245;51.282;22.494;2023-04-29T03:22:44;99148.94;;;2.35;82.65
75650;BME280;64245;51.282;22.494;2023-04-29T03:25:09;99169.97;;;2.67;82.92
75650;BME280;64245;51.282;22.494;2023-04-29T03:27:35;99155.16;;;2.63;81.89
75650;BME280;64245;51.282;22.494;2023-04-29T03:30:01;99156.44;;;2.70;82.10
75650;BME280;64245;51.282;22.494;2023-04-29T03:32:27;99185.50;;;2.87;81.99
75650;BME280;64245;51.282;22.494;2023-04-29T03:34:52;99175.50;;;2.91;82.66
75650;BME280;64245;51.282;22.494;2023-04-29T03:37:19;99148.56;;;2.83;81.89
75650;BME280;64245;51.282;22.494;2023-04-29T03:39:45;99169.69;;;2.98;82.14
75650;BME280;64245;51.282;22.494;2023-04-29T03:42:11;99178.13;;;3.05;81.21
75650;BME280;64245;51.282;22.494;2023-04-29T03:44:36;99173.94;;;3.28;80.38
75650;BME280;64245;51.282;22.494;2023-04-29T03:47:02;99173.84;;;3.29;80.78
75650;BME280;64245;51.282;22.494;2023-04-29T03:49:28;99177.50;;;3.41;81.22
75650;BME280;64245;51.282;22.494;2023-04-29T03:51:53;99161.56;;;3.54;78.81
75650;BME280;64245;51.282;22.494;2023-04-29T03:54:19;99172.13;;;3.68;79.70
75650;BME280;64245;51.282;22.494;2023-04-29T03:56:45;99164.13;;;3.68;79.17
75650;BME280;64245;51.282;22.494;2023-04-29T03:59:11;99172.34;;;3.90;78.38
75650;BME280;64245;51.282;22.494;2023-04-29T04:01:36;99162.44;;;4.05;77.52
75650;BME280;64245;51.282;22.494;2023-04-29T04:04:02;99163.63;;;4.13;77.01
75650;BME280;64245;51.282;22.494;2023-04-29T04:06:28;99169.38;;;4.20;76.21
75650;BME280;64245;51.282;22.494;2023-04-29T04:08:53;99197.06;;;4.43;77.16
75650;BME280;64245;51.282;22.494;2023-04-29T04:11:19;99147.09;;;4.21;76.00
75650;BME280;64245;51.282;22.494;2023-04-29T04:13:45;99158.38;;;4.37;75.12
75650;BME280;64245;51.282;22.494;2023-04-29T04:16:11;99164.09;;;4.57;75.77
75650;BME280;64245;51.282;22.494;2023-04-29T04:18:37;99183.91;;;4.65;76.37
75650;BME280;64245;51.282;22.494;2023-04-29T04:21:10;99165.88;;;4.69;74.54
75650;BME280;64245;51.282;22.494;2023-04-29T04:23:36;99157.34;;;4.64;74.07
75650;BME280;64245;51.282;22.494;2023-04-29T04:26:05;99157.19;;;4.54;74.94
75650;BME280;64245;51.282;22.494;2023-04-29T04:28:31;99158.31;;;4.63;76.40
75650;BME280;64245;51.282;22.494;2023-04-29T04:30:56;99174.31;;;4.75;75.25
75650;BME280;64245;51.282;22.494;2023-04-29T04:33:24;99155.53;;;4.64;75.33
75650;BME280;64245;51.282;22.494;2023-04-29T04:35:50;99169.09;;;4.74;75.76
75650;BME280;64245;51.282;22.494;2023-04-29T04:38:16;99145.81;;;4.76;75.23
75650;BME280;64245;51.282;22.494;2023-04-29T04:40:42;99142.28;;;4.75;74.74
75650;BME280;64245;51.282;22.494;2023-04-29T04:43:08;99167.63;;;4.94;75.03
75650;BME280;64245;51.282;22.494;2023-04-29T04:45:33;99159.88;;;5.14;73.33
75650;BME280;64245;51.282;22.494;2023-04-29T04:47:59;99136.47;;;4.94;74.18
75650;BME280;64245;51.282;22.494;2023-04-29T04:50:29;99166.44;;;5.21;73.29
75650;BME280;64245;51.282;22.494;2023-04-29T04:52:55;99157.72;;;5.19;74.03
75650;BME280;64245;51.282;22.494;2023-04-29T04:55:21;99162.97;;;5.32;72.84
75650;BME280;64245;51.282;22.494;2023-04-29T04:57:47;99147.03;;;5.19;72.80
75650;BME280;64245;51.282;22.494;2023-04-29T05:00:13;99152.00;;;5.24;74.50
75650;BME280;64245;51.282;22.494;2023-04-29T05:02:39;99128.59;;;5.28;72.61
75650;BME280;64245;51.282;22.494;2023-04-29T05:05:04;99138.59;;;5.37;73.08
75650;BME280;64245;51.282;22.494;2023-04-29T05:07:31;99157.34;;;5.59;74.34
75650;BME280;64245;51.282;22.494;2023-04-29T05:10:00;99133.31;;;5.59;72.54
75650;BME280;64245;51.282;22.494;2023-04-29T05:12:29;99150.47;;;5.68;75.19
75650;BME280;64245;51.282;22.494;2023-04-29T05:14:56;99149.81;;;5.88;71.16
75650;BME280;64245;51.282;22.494;2023-04-29T05:17:22;99156.03;;;6.00;70.68
75650;BME280;64245;51.282;22.494;2023-04-29T05:19:47;99133.34;;;5.94;72.21
75650;BME280;64245;51.282;22.494;2023-04-29T05:22:13;99136.00;;;6.05;71.07
75650;BME280;64245;51.282;22.494;2023-04-29T05:24:39;99144.78;;;6.30;71.96
75650;BME280;64245;51.282;22.494;2023-04-29T05:27:05;99141.25;;;6.29;71.17
75650;BME280;64245;51.282;22.494;2023-04-29T05:29:31;99119.97;;;6.16;71.24
75650;BME280;64245;51.282;22.494;2023-04-29T05:31:57;99133.22;;;6.40;70.67
75650;BME280;64245;51.282;22.494;2023-04-29T05:34:23;99156.19;;;6.65;70.49
75650;BME280;64245;51.282;22.494;2023-04-29T05:36:50;99134.19;;;6.62;69.75
75650;BME280;64245;51.282;22.494;2023-04-29T05:39:15;99134.66;;;6.67;70.16
75650;BME280;64245;51.282;22.494;2023-04-29T05:41:42;99152.00;;;6.94;69.35
75650;BME280;64245;51.282;22.494;2023-04-29T05:44:08;99149.69;;;7.01;68.22
75650;BME280;64245;51.282;22.494;2023-04-29T05:46:34;99134.47;;;7.02;68.26
75650;BME280;64245;51.282;22.494;2023-04-29T05:48:59;99138.91;;;7.23;68.74
75650;BME280;64245;51.282;22.494;2023-04-29T05:51:25;99145.03;;;7.46;66.25
75650;BME280;64245;51.282;22.494;2023-04-29T05:53:53;99157.72;;;7.65;66.77
75650;BME280;64245;51.282;22.494;2023-04-29T05:56:19;99145.97;;;7.77;65.57
75650;BME280;64245;51.282;22.494;2023-04-29T05:58:45;99158.72;;;7.85;64.96
75650;BME280;64245;51.282;22.494;2023-04-29T06:01:11;99146.91;;;7.87;66.40
75650;BME280;64245;51.282;22.494;2023-04-29T06:03:37;99132.81;;;7.95;65.47
75650;BME280;64245;51.282;22.494;2023-04-29T06:06:02;99136.59;;;8.13;65.31
75650;BME280;64245;51.282;22.494;2023-04-29T06:08:28;99152.88;;;8.42;62.13
75650;BME280;64245;51.282;22.494;2023-04-29T06:10:54;99144.72;;;8.53;62.42
75650;BME280;64245;51.282;22.494;2023-04-29T06:13:20;99152.97;;;8.71;62.06
75650;BME280;64245;51.282;22.494;2023-04-29T06:15:46;99143.94;;;8.72;62.25
75650;BME280;64245;51.282;22.494;2023-04-29T06:18:12;99130.13;;;8.77;62.92
75650;BME280;64245;51.282;22.494;2023-04-29T06:20:38;99123.66;;;8.98;62.54
75650;BME280;64245;51.282;22.494;2023-04-29T06:23:03;99116.34;;;9.20;61.18
75650;BME280;64245;51.282;22.494;2023-04-29T06:25:30;99128.94;;;9.48;60.51
75650;BME280;64245;51.282;22.494;2023-04-29T06:27:58;99129.09;;;9.56;60.56
75650;BME280;64245;51.282;22.494;2023-04-29T06:30:25;99118.75;;;9.42;59.22
75650;BME280;64245;51.282;22.494;2023-04-29T06:32:51;99139.41;;;9.61;59.46
75650;BME280;64245;51.282;22.494;2023-04-29T06:35:17;99119.31;;;9.55;58.54
75650;BME280;64245;51.282;22.494;2023-04-29T06:37:42;99109.22;;;9.86;58.84
75650;BME280;64245;51.282;22.494;2023-04-29T06:40:08;99140.31;;;10.18;59.26
75650;BME280;64245;51.282;22.494;2023-04-29T06:42:34;99116.84;;;10.20;58.88
75650;BME280;64245;51.282;22.494;2023-04-29T06:45:01;99133.91;;;10.38;57.50
75650;BME280;64245;51.282;22.494;2023-04-29T06:47:27;99124.66;;;10.50;57.06
75650;BME280;64245;51.282;22.494;2023-04-29T06:49:54;99109.09;;;10.71;56.67
75650;BME280;64245;51.282;22.494;2023-04-29T06:52:19;99142.72;;;10.95;58.86
75650;BME280;64245;51.282;22.494;2023-04-29T06:54:45;99132.50;;;10.71;56.24
75650;BME280;64245;51.282;22.494;2023-04-29T06:57:11;99123.38;;;10.54;56.74
75650;BME280;64245;51.282;22.494;2023-04-29T06:59:37;99121.97;;;10.50;58.77
75650;BME280;64245;51.282;22.494;2023-04-29T07:02:02;99145.56;;;10.66;56.46
75650;BME280;64245;51.282;22.494;2023-04-29T07:04:28;99118.28;;;10.42;56.24
75650;BME280;64245;51.282;22.494;2023-04-29T07:06:55;99126.69;;;10.38;56.74
75650;BME280;64245;51.282;22.494;2023-04-29T07:09:20;99110.50;;;10.48;55.27
75650;BME280;64245;51.282;22.494;2023-04-29T07:11:48;99137.06;;;10.61;55.35
75650;BME280;64245;51.282;22.494;2023-04-29T07:14:14;99130.94;;;10.96;53.54
75650;BME280;64245;51.282;22.494;2023-04-29T07:16:39;99108.31;;;11.06;54.58
75650;BME280;64245;51.282;22.494;2023-04-29T07:19:05;99110.34;;;11.22;54.29
75650;BME280;64245;51.282;22.494;2023-04-29T07:21:31;99132.06;;;11.38;54.69
75650;BME280;64245;51.282;22.494;2023-04-29T07:23:57;99121.06;;;11.50;52.43
75650;BME280;64245;51.282;22.494;2023-04-29T07:26:28;99129.59;;;11.45;51.04
75650;BME280;64245;51.282;22.494;2023-04-29T07:28:54;99129.47;;;11.47;52.57
75650;BME280;64245;51.282;22.494;2023-04-29T07:31:23;99136.16;;;11.60;52.76
75650;BME280;64245;51.282;22.494;2023-04-29T07:33:52;99112.66;;;11.70;53.11
75650;BME280;64245;51.282;22.494;2023-04-29T07:36:19;99117.75;;;11.91;53.80
75650;BME280;64245;51.282;22.494;2023-04-29T07:38:47;99116.97;;;11.81;52.20
75650;BME280;64245;51.282;22.494;2023-04-29T07:41:13;99145.09;;;11.79;49.11
75650;BME280;64245;51.282;22.494;2023-04-29T07:43:40;99141.09;;;11.83;48.21
75650;BME280;64245;51.282;22.494;2023-04-29T07:46:06;99128.19;;;11.94;49.24
75650;BME280;64245;51.282;22.494;2023-04-29T07:48:36;99144.94;;;11.98;49.98
75650;BME280;64245;51.282;22.494;2023-04-29T07:51:02;99122.56;;;12.05;47.65
75650;BME280;64245;51.282;22.494;2023-04-29T07:53:28;99124.13;;;12.16;46.69
75650;BME280;64245;51.282;22.494;2023-04-29T07:55:57;99112.66;;;12.40;46.41
75650;BME280;64245;51.282;22.494;2023-04-29T07:58:26;99118.13;;;12.56;46.84
75650;BME280;64245;51.282;22.494;2023-04-29T08:00:52;99123.34;;;12.92;46.92
75650;BME280;64245;51.282;22.494;2023-04-29T08:03:18;99110.56;;;13.02;47.01
75650;BME280;64245;51.282;22.494;2023-04-29T08:05:47;99122.84;;;13.38;45.62
75650;BME280;64245;51.282;22.494;2023-04-29T08:08:14;99132.63;;;13.31;45.26
75650;BME280;64245;51.282;22.494;2023-04-29T08:10:40;99114.03;;;13.36;44.63
75650;BME280;64245;51.282;22.494;2023-04-29T08:13:09;99139.75;;;13.40;46.85
75650;BME280;64245;51.282;22.494;2023-04-29T08:15:37;99113.56;;;12.99;44.38
75650;BME280;64245;51.282;22.494;2023-04-29T08:18:03;99118.28;;;12.89;44.72
75650;BME280;64245;51.282;22.494;2023-04-29T08:20:28;99114.09;;;13.10;44.96
75650;BME280;64245;51.282;22.494;2023-04-29T08:22:57;99138.72;;;13.49;45.81
75650;BME280;64245;51.282;22.494;2023-04-29T08:25:23;99139.06;;;13.38;45.19
75650;BME280;64245;51.282;22.494;2023-04-29T08:27:51;99093.94;;;13.39;44.89
75650;BME280;64245;51.282;22.494;2023-04-29T08:30:17;99129.97;;;13.64;44.76
75650;BME280;64245;51.282;22.494;2023-04-29T08:32:43;99105.78;;;13.46;46.25
75650;BME280;64245;51.282;22.494;2023-04-29T08:35:09;99125.72;;;13.69;44.51
75650;BME280;64245;51.282;22.494;2023-04-29T08:37:35;99118.47;;;13.62;45.22
75650;BME280;64245;51.282;22.494;2023-04-29T08:40:00;99125.03;;;13.51;44.25
75650;BME280;64245;51.282;22.494;2023-04-29T08:42:36;99128.09;;;13.72;45.52
75650;BME280;64245;51.282;22.494;2023-04-29T08:45:02;99113.41;;;13.75;44.36
75650;BME280;64245;51.282;22.494;2023-04-29T08:47:30;99113.22;;;13.76;45.17
75650;BME280;64245;51.282;22.494;2023-04-29T08:50:01;99118.47;;;14.02;47.00
75650;BME280;64245;51.282;22.494;2023-04-29T08:52:31;99092.44;;;13.85;44.57
75650;BME280;64245;51.282;22.494;2023-04-29T08:54:58;99115.75;;;13.94;43.49
75650;BME280;64245;51.282;22.494;2023-04-29T08:57:27;99097.84;;;13.85;42.80
75650;BME280;64245;51.282;22.494;2023-04-29T08:59:54;99099.19;;;13.81;43.79
75650;BME280;64245;51.282;22.494;2023-04-29T09:02:21;99101.72;;;13.82;46.28
75650;BME280;64245;51.282;22.494;2023-04-29T09:05:13;99113.56;;;13.98;44.46
75650;BME280;64245;51.282;22.494;2023-04-29T09:07:38;99082.25;;;13.95;45.49
75650;BME280;64245;51.282;22.494;2023-04-29T09:10:06;99103.50;;;14.31;44.26
75650;BME280;64245;51.282;22.494;2023-04-29T09:12:33;99105.19;;;14.48;44.76
75650;BME280;64245;51.282;22.494;2023-04-29T09:14:58;99104.50;;;14.62;45.86
75650;BME280;64245;51.282;22.494;2023-04-29T09:17:41;99095.28;;;14.71;47.20
75650;BME280;64245;51.282;22.494;2023-04-29T09:22:48;99093.53;;;14.86;43.47
75650;BME280;64245;51.282;22.494;2023-04-29T09:25:14;99118.13;;;15.16;44.34
75650;BME280;64245;51.282;22.494;2023-04-29T09:27:40;99103.03;;;14.82;41.67
75650;BME280;64245;51.282;22.494;2023-04-29T09:30:08;99106.03;;;14.57;42.52
75650;BME280;64245;51.282;22.494;2023-04-29T09:32:34;99106.59;;;14.83;42.81
75650;BME280;64245;51.282;22.494;2023-04-29T09:35:23;99112.47;;;14.95;42.68
75650;BME280;64245;51.282;22.494;2023-04-29T09:37:51;99118.44;;;15.21;43.10
75650;BME280;64245;51.282;22.494;2023-04-29T09:40:33;99109.22;;;15.30;43.45
75650;BME280;64245;51.282;22.494;2023-04-29T09:42:59;99103.38;;;15.18;43.67
75650;BME280;64245;51.282;22.494;2023-04-29T09:45:36;99104.69;;;15.23;44.87
75650;BME280;64245;51.282;22.494;2023-04-29T09:48:06;99106.25;;;15.17;43.25
75650;BME280;64245;51.282;22.494;2023-04-29T09:50:39;99106.66;;;15.37;43.76
75650;BME280;64245;51.282;22.494;2023-04-29T09:53:07;99109.22;;;15.61;43.66
75650;BME280;64245;51.282;22.494;2023-04-29T09:58:33;99100.69;;;15.87;45.55
75650;BME280;64245;51.282;22.494;2023-04-29T10:01:02;99107.03;;;15.79;42.40
75650;BME280;64245;51.282;22.494;2023-04-29T10:03:33;99089.78;;;15.95;44.62
75650;BME280;64245;51.282;22.494;2023-04-29T10:06:02;99101.31;;;15.74;43.16
75650;BME280;64245;51.282;22.494;2023-04-29T10:08:32;99083.16;;;15.75;43.81
75650;BME280;64245;51.282;22.494;2023-04-29T10:11:00;99103.47;;;15.79;41.12
75650;BME280;64245;51.282;22.494;2023-04-29T10:13:26;99092.78;;;15.54;41.98
75650;BME280;64245;51.282;22.494;2023-04-29T10:18:35;99089.50;;;15.67;44.64
75650;BME280;64245;51.282;22.494;2023-04-29T10:21:08;99092.06;;;15.83;42.43
75650;BME280;64245;51.282;22.494;2023-04-29T10:23:35;99092.44;;;15.80;42.41
75650;BME280;64245;51.282;22.494;2023-04-29T10:26:01;99081.94;;;15.54;45.03
75650;BME280;64245;51.282;22.494;2023-04-29T10:28:31;99082.66;;;15.94;42.81
75650;BME280;64245;51.282;22.494;2023-04-29T10:31:00;99090.19;;;16.21;44.55
75650;BME280;64245;51.282;22.494;2023-04-29T10:33:34;99077.53;;;16.29;40.68
75650;BME280;64245;51.282;22.494;2023-04-29T10:36:00;99082.50;;;16.10;42.26
75650;BME280;64245;51.282;22.494;2023-04-29T10:38:40;99069.28;;;16.22;41.82
75650;BME280;64245;51.282;22.494;2023-04-29T10:41:12;99076.81;;;16.49;41.58
75650;BME280;64245;51.282;22.494;2023-04-29T10:43:40;99055.34;;;16.54;40.89
75650;BME280;64245;51.282;22.494;2023-04-29T10:48:44;99071.19;;;17.31;39.93
75650;BME280;64245;51.282;22.494;2023-04-29T10:51:10;99062.38;;;17.72;36.68
75650;BME280;64245;51.282;22.494;2023-04-29T10:53:59;99048.84;;;17.21;37.88
75650;BME280;64245;51.282;22.494;2023-04-29T10:56:43;99059.13;;;17.61;39.42
75650;BME280;64245;51.282;22.494;2023-04-29T10:59:14;99059.31;;;18.09;37.95
75650;BME280;64245;51.282;22.494;2023-04-29T11:01:51;99041.34;;;18.84;36.32
75650;BME280;64245;51.282;22.494;2023-04-29T11:04:18;99056.22;;;19.36;39.43
75650;BME280;64245;51.282;22.494;2023-04-29T11:06:46;99050.22;;;19.73;36.02
75650;BME280;64245;51.282;22.494;2023-04-29T11:14:12;99033.81;;;19.80;34.50
75650;BME280;64245;51.282;22.494;2023-04-29T11:16:46;99030.75;;;20.67;35.14
75650;BME280;64245;51.282;22.494;2023-04-29T11:19:15;99021.03;;;21.29;33.35
75650;BME280;64245;51.282;22.494;2023-04-29T11:21:43;99020.47;;;21.07;33.59
75650;BME280;64245;51.282;22.494;2023-04-29T11:24:10;99042.91;;;20.84;34.85
75650;BME280;64245;51.282;22.494;2023-04-29T11:26:37;99032.50;;;21.06;31.83
75650;BME280;64245;51.282;22.494;2023-04-29T11:29:07;99034.56;;;19.34;35.05
75650;BME280;64245;51.282;22.494;2023-04-29T11:31:35;99041.81;;;19.75;34.92
75650;BME280;64245;51.282;22.494;2023-04-29T11:34:03;99038.44;;;19.59;35.97
75650;BME280;64245;51.282;22.494;2023-04-29T11:36:31;99015.91;;;20.04;34.21
75650;BME280;64245;51.282;22.494;2023-04-29T11:38:59;99038.63;;;19.58;37.63
75650;BME280;64245;51.282;22.494;2023-04-29T11:41:25;99035.06;;;20.04;38.00
75650;BME280;64245;51.282;22.494;2023-04-29T11:43:55;99035.88;;;19.51;36.96
75650;BME280;64245;51.282;22.494;2023-04-29T11:46:22;99027.00;;;19.29;36.30
75650;BME280;64245;51.282;22.494;2023-04-29T11:48:48;99030.16;;;19.33;35.51
75650;BME280;64245;51.282;22.494;2023-04-29T11:51:15;99031.72;;;19.75;36.94
75650;BME280;64245;51.282;22.494;2023-04-29T11:53:42;99018.56;;;19.18;36.38
75650;BME280;64245;51.282;22.494;2023-04-29T11:56:08;99014.44;;;19.42;36.62
75650;BME280;64245;51.282;22.494;2023-04-29T11:58:36;99024.13;;;20.37;33.17
75650;BME280;64245;51.282;22.494;2023-04-29T12:01:03;99020.38;;;19.98;33.54
75650;BME280;64245;51.282;22.494;2023-04-29T12:03:31;99023.50;;;20.08;35.08
75650;BME280;64245;51.282;22.494;2023-04-29T12:05:57;99016.97;;;20.16;34.05
75650;BME280;64245;51.282;22.494;2023-04-29T12:08:27;99019.31;;;19.99;36.35
75650;BME280;64245;51.282;22.494;2023-04-29T12:10:54;99010.41;;;20.50;34.38
75650;BME280;64245;51.282;22.494;2023-04-29T12:13:22;99011.81;;;20.72;37.22
75650;BME280;64245;51.282;22.494;2023-04-29T12:15:49;99003.09;;;20.88;34.40
75650;BME280;64245;51.282;22.494;2023-04-29T12:18:19;98983.09;;;20.88;34.24
75650;BME280;64245;51.282;22.494;2023-04-29T12:20:48;98989.47;;;21.20;33.78
75650;BME280;64245;51.282;22.494;2023-04-29T12:23:17;98992.56;;;21.30;34.29
75650;BME280;64245;51.282;22.494;2023-04-29T12:25:49;98978.69;;;21.18;33.64
75650;BME280;64245;51.282;22.494;2023-04-29T12:28:15;98985.72;;;21.46;34.46
75650;BME280;64245;51.282;22.494;2023-04-29T12:30:43;98991.59;;;21.99;33.18
75650;BME280;64245;51.282;22.494;2023-04-29T12:33:09;98977.22;;;21.54;31.75
75650;BME280;64245;51.282;22.494;2023-04-29T12:35:38;98965.34;;;21.60;32.59
75650;BME280;64245;51.282;22.494;2023-04-29T12:38:03;98971.41;;;22.36;32.46
75650;BME280;64245;51.282;22.494;2023-04-29T12:40:31;98967.28;;;22.27;32.97
75650;BME280;64245;51.282;22.494;2023-04-29T12:42:57;98982.75;;;23.25;30.38
75650;BME280;64245;51.282;22.494;2023-04-29T12:45:30;98977.13;;;21.67;31.53
75650;BME280;64245;51.282;22.494;2023-04-29T12:47:57;98967.97;;;22.78;30.80
75650;BME280;64245;51.282;22.494;2023-04-29T12:50:36;98968.06;;;23.61;30.79
75650;BME280;64245;51.282;22.494;2023-04-29T12:53:04;98961.72;;;23.72;31.92
75650;BME280;64245;51.282;22.494;2023-04-29T12:55:39;98947.84;;;23.67;29.51
75650;BME280;64245;51.282;22.494;2023-04-29T12:58:06;98955.38;;;22.52;30.00
75650;BME280;64245;51.282;22.494;2023-04-29T13:00:31;98939.63;;;21.36;31.42
75650;BME280;64245;51.282;22.494;2023-04-29T13:02:59;98949.13;;;22.81;31.30
75650;BME280;64245;51.282;22.494;2023-04-29T13:05:24;98951.22;;;22.97;29.90
75650;BME280;64245;51.282;22.494;2023-04-29T13:07:50;98948.47;;;23.81;29.82
75650;BME280;64245;51.282;22.494;2023-04-29T13:10:15;98950.25;;;23.63;31.01
75650;BME280;64245;51.282;22.494;2023-04-29T13:12:42;98950.38;;;23.92;27.81
75650;BME280;64245;51.282;22.494;2023-04-29T13:15:07;98941.50;;;24.48;28.50
75650;BME280;64245;51.282;22.494;2023-04-29T13:17:35;98951.84;;;23.83;27.66
75650;BME280;64245;51.282;22.494;2023-04-29T13:20:02;98959.97;;;21.96;33.35